sensor_id;sensor_type;location;lat;lon;timestamp;temperature;humidity
39067;DHT22;24821;51.988;6.020;2024-01-16T00:01:44;1.30;99.90
39067;DHT22;24821;51.988;6.020;2024-01-16T00:04:09;1.30;99.90
39067;DHT22;24821;51.988;6.020;2024-01-16T00:06:41;1.40;99.90
39067;DHT22;24821;51.988;6.020;2024-01-16T00:09:07;1.40;99.90
39067;DHT22;24821;51.988;6.020;2024-01-16T00:11:33;1.40;99.90
39067;DHT22;24821;51.988;6.020;2024-01-16T00:13:59;1.40;99.90
39067;DHT22;24821;51.988;6.020;2024-01-16T00:16:24;1.30;99.90
39067;DHT22;24821;51.988;6.020;2024-01-16T00:18:50;1.40;99.90
39067;DHT22;24821;51.988;6.020;2024-01-16T00:21:15;1.30;99.90
39067;DHT22;24821;51.988;6.020;2024-01-16T00:23:41;1.20;99.90
39067;DHT22;24821;51.988;6.020;2024-01-16T00:26:06;1.20;99.90
39067;DHT22;24821;51.988;6.020;2024-01-16T00:28:32;1.20;99.90
39067;DHT22;24821;51.988;6.020;2024-01-16T00:30:57;1.20;99.90
39067;DHT22;24821;51.988;6.020;2024-01-16T00:33:23;1.20;99.90
39067;DHT22;24821;51.988;6.020;2024-01-16T00:35:48;1.10;99.90
39067;DHT22;24821;51.988;6.020;2024-01-16T00:38:14;1.10;99.90
39067;DHT22;24821;51.988;6.020;2024-01-16T00:40:39;1.10;99.90
39067;DHT22;24821;51.988;6.020;2024-01-16T00:43:05;1.10;99.90
39067;DHT22;24821;51.988;6.020;2024-01-16T00:45:30;1.10;99.90
39067;DHT22;24821;51.988;6.020;2024-01-16T00:47:55;1.10;99.90
39067;DHT22;24821;51.988;6.020;2024-01-16T00:50:21;1.10;99.90
39067;DHT22;24821;51.988;6.020;2024-01-16T00:52:47;1.10;99.90
39067;DHT22;24821;51.988;6.020;2024-01-16T00:55:12;1.10;99.90
39067;DHT22;24821;51.988;6.020;2024-01-16T00:57:38;1.10;99.90
39067;DHT22;24821;51.988;6.020;2024-01-16T01:00:04;1.20;99.90
39067;DHT22;24821;51.988;6.020;2024-01-16T01:02:29;1.20;99.90
39067;DHT22;24821;51.988;6.020;2024-01-16T01:04:55;1.20;99.90
39067;DHT22;24821;51.988;6.020;2024-01-16T01:07:20;1.30;99.90
39067;DHT22;24821;51.988;6.020;2024-01-16T01:09:46;1.30;99.90
39067;DHT22;24821;51.988;6.020;2024-01-16T01:12:11;1.30;99.90
39067;DHT22;24821;51.988;6.020;2024-01-16T01:14:37;1.40;99.90
39067;DHT22;24821;51.988;6.020;2024-01-16T01:17:02;1.40;99.90
39067;DHT22;24821;51.988;6.020;2024-01-16T01:19:28;1.40;99.90
39067;DHT22;24821;51.988;6.020;2024-01-16T01:21:53;1.40;99.90
39067;DHT22;24821;51.988;6.020;2024-01-16T01:24:19;1.40;99.90
39067;DHT22;24821;51.988;6.020;2024-01-16T01:26:44;1.40;99.90
39067;DHT22;24821;51.988;6.020;2024-01-16T01:29:10;1.40;99.90
39067;DHT22;24821;51.988;6.020;2024-01-16T01:31:35;1.40;99.90
39067;DHT22;24821;51.988;6.020;2024-01-16T01:34:01;1.40;99.90
39067;DHT22;24821;51.988;6.020;2024-01-16T01:36:26;1.30;99.90
39067;DHT22;24821;51.988;6.020;2024-01-16T01:38:52;1.30;99.90
39067;DHT22;24821;51.988;6.020;2024-01-16T01:41:17;1.20;99.90
39067;DHT22;24821;51.988;6.020;2024-01-16T01:43:43;1.20;99.90
39067;DHT22;24821;51.988;6.020;2024-01-16T01:46:09;1.20;99.90
39067;DHT22;24821;51.988;6.020;2024-01-16T01:48:40;1.10;99.90
39067;DHT22;24821;51.988;6.020;2024-01-16T01:51:05;1.10;99.90
39067;DHT22;24821;51.988;6.020;2024-01-16T01:53:31;1.10;99.90
39067;DHT22;24821;51.988;6.020;2024-01-16T01:55:58;1.00;99.90
39067;DHT22;24821;51.988;6.020;2024-01-16T01:58:24;1.00;99.90
39067;DHT22;24821;51.988;6.020;2024-01-16T02:00:50;1.00;99.90
39067;DHT22;24821;51.988;6.020;2024-01-16T02:03:15;1.00;99.90
39067;DHT22;24821;51.988;6.020;2024-01-16T02:05:41;1.00;99.90
39067;DHT22;24821;51.988;6.020;2024-01-16T02:08:07;1.00;99.90
39067;DHT22;24821;51.988;6.020;2024-01-16T02:10:34;1.00;99.90
39067;DHT22;24821;51.988;6.020;2024-01-16T02:12:59;1.00;99.90
39067;DHT22;24821;51.988;6.020;2024-01-16T02:15:25;0.90;99.90
39067;DHT22;24821;51.988;6.020;2024-01-16T02:17:51;1.00;99.90
39067;DHT22;24821;51.988;6.020;2024-01-16T02:20:16;1.00;99.90
39067;DHT22;24821;51.988;6.020;2024-01-16T02:22:42;0.90;99.90
39067;DHT22;24821;51.988;6.020;2024-01-16T02:25:11;1.00;99.90
39067;DHT22;24821;51.988;6.020;2024-01-16T02:27:36;0.90;99.90
39067;DHT22;24821;51.988;6.020;2024-01-16T02:30:02;1.00;99.90
39067;DHT22;24821;51.988;6.020;2024-01-16T02:32:27;1.00;99.90
39067;DHT22;24821;51.988;6.020;2024-01-16T02:34:53;1.00;99.90
39067;DHT22;24821;51.988;6.020;2024-01-16T02:37:18;1.00;99.90
39067;DHT22;24821;51.988;6.020;2024-01-16T02:39:44;1.10;99.90
39067;DHT22;24821;51.988;6.020;2024-01-16T02:42:09;1.10;99.90
39067;DHT22;24821;51.988;6.020;2024-01-16T02:44:35;1.10;99.90
39067;DHT22;24821;51.988;6.020;2024-01-16T02:47:00;1.20;99.90
39067;DHT22;24821;51.988;6.020;2024-01-16T02:49:25;1.20;99.90
39067;DHT22;24821;51.988;6.020;2024-01-16T02:51:51;1.30;99.90
39067;DHT22;24821;51.988;6.020;2024-01-16T02:54:17;1.30;99.90
39067;DHT22;24821;51.988;6.020;2024-01-16T02:56:42;1.30;99.90
39067;DHT22;24821;51.988;6.020;2024-01-16T02:59:08;1.40;99.90
39067;DHT22;24821;51.988;6.020;2024-01-16T03:01:34;1.50;99.90
39067;DHT22;24821;51.988;6.020;2024-01-16T03:03:59;1.50;99.90
39067;DHT22;24821;51.988;6.020;2024-01-16T03:06:25;1.50;99.90
39067;DHT22;24821;51.988;6.020;2024-01-16T03:08:50;1.50;99.90
39067;DHT22;24821;51.988;6.020;2024-01-16T03:11:16;1.50;99.90
39067;DHT22;24821;51.988;6.020;2024-01-16T03:13:42;1.50;99.90
39067;DHT22;24821;51.988;6.020;2024-01-16T03:16:08;1.50;99.90
39067;DHT22;24821;51.988;6.020;2024-01-16T03:18:35;1.50;99.90
39067;DHT22;24821;51.988;6.020;2024-01-16T03:21:01;1.60;99.90
39067;DHT22;24821;51.988;6.020;2024-01-16T03:23:26;1.60;99.90
39067;DHT22;24821;51.988;6.020;2024-01-16T03:25:52;1.60;99.90
39067;DHT22;24821;51.988;6.020;2024-01-16T03:28:17;1.60;99.90
39067;DHT22;24821;51.988;6.020;2024-01-16T03:30:43;1.60;99.90
39067;DHT22;24821;51.988;6.020;2024-01-16T03:33:08;1.60;99.90
39067;DHT22;24821;51.988;6.020;2024-01-16T03:35:34;1.60;99.90
39067;DHT22;24821;51.988;6.020;2024-01-16T03:37:59;1.60;99.90
39067;DHT22;24821;51.988;6.020;2024-01-16T03:40:25;1.60;99.90
39067;DHT22;24821;51.988;6.020;2024-01-16T03:42:50;1.60;99.90
39067;DHT22;24821;51.988;6.020;2024-01-16T03:45:16;1.60;99.90
39067;DHT22;24821;51.988;6.020;2024-01-16T03:47:41;1.60;99.90
39067;DHT22;24821;51.988;6.020;2024-01-16T03:50:07;1.60;99.90
39067;DHT22;24821;51.988;6.020;2024-01-16T03:52:32;1.70;99.90
39067;DHT22;24821;51.988;6.020;2024-01-16T03:54:58;1.70;99.90
39067;DHT22;24821;51.988;6.020;2024-01-16T03:57:23;1.70;99.90
39067;DHT22;24821;51.988;6.020;2024-01-16T03:59:50;1.70;99.90
39067;DHT22;24821;51.988;6.020;2024-01-16T04:02:15;1.70;99.90
39067;DHT22;24821;51.988;6.020;2024-01-16T04:04:41;1.70;99.90
39067;DHT22;24821;51.988;6.020;2024-01-16T04:07:06;1.60;99.90
39067;DHT22;24821;51.988;6.020;2024-01-16T04:09:31;1.70;99.90
39067;DHT22;24821;51.988;6.020;2024-01-16T04:11:57;1.70;99.90
39067;DHT22;24821;51.988;6.020;2024-01-16T04:14:22;1.70;99.90
39067;DHT22;24821;51.988;6.020;2024-01-16T04:16:48;1.70;99.90
39067;DHT22;24821;51.988;6.020;2024-01-16T04:19:13;1.70;99.90
39067;DHT22;24821;51.988;6.020;2024-01-16T04:21:39;1.70;99.90
39067;DHT22;24821;51.988;6.020;2024-01-16T04:24:04;1.70;99.90
39067;DHT22;24821;51.988;6.020;2024-01-16T04:26:30;1.70;99.90
39067;DHT22;24821;51.988;6.020;2024-01-16T04:28:55;1.70;99.90
39067;DHT22;24821;51.988;6.020;2024-01-16T04:31:20;1.70;99.90
39067;DHT22;24821;51.988;6.020;2024-01-16T04:33:47;1.80;99.90
39067;DHT22;24821;51.988;6.020;2024-01-16T04:36:13;1.80;99.90
39067;DHT22;24821;51.988;6.020;2024-01-16T04:38:38;1.80;99.90
39067;DHT22;24821;51.988;6.020;2024-01-16T04:41:04;1.80;99.90
39067;DHT22;24821;51.988;6.020;2024-01-16T04:43:29;1.80;99.90
39067;DHT22;24821;51.988;6.020;2024-01-16T04:45:55;1.80;99.90
39067;DHT22;24821;51.988;6.020;2024-01-16T04:48:20;1.80;99.90
39067;DHT22;24821;51.988;6.020;2024-01-16T04:50:45;1.90;99.90
39067;DHT22;24821;51.988;6.020;2024-01-16T04:53:11;1.90;99.90
39067;DHT22;24821;51.988;6.020;2024-01-16T04:55:36;1.90;99.90
39067;DHT22;24821;51.988;6.020;2024-01-16T04:58:02;1.90;99.90
39067;DHT22;24821;51.988;6.020;2024-01-16T05:00:27;1.90;99.90
39067;DHT22;24821;51.988;6.020;2024-01-16T05:02:56;1.80;99.90
39067;DHT22;24821;51.988;6.020;2024-01-16T05:05:21;1.80;99.90
39067;DHT22;24821;51.988;6.020;2024-01-16T05:07:47;1.80;99.90
39067;DHT22;24821;51.988;6.020;2024-01-16T05:10:13;1.80;99.90
39067;DHT22;24821;51.988;6.020;2024-01-16T05:12:38;1.70;99.90
39067;DHT22;24821;51.988;6.020;2024-01-16T05:15:04;1.70;99.90
39067;DHT22;24821;51.988;6.020;2024-01-16T05:17:30;1.60;99.90
39067;DHT22;24821;51.988;6.020;2024-01-16T05:19:55;1.60;99.90
39067;DHT22;24821;51.988;6.020;2024-01-16T05:22:22;1.60;99.90
39067;DHT22;24821;51.988;6.020;2024-01-16T05:24:47;1.60;99.90
39067;DHT22;24821;51.988;6.020;2024-01-16T05:27:12;1.60;99.90
39067;DHT22;24821;51.988;6.020;2024-01-16T05:29:42;1.60;99.90
39067;DHT22;24821;51.988;6.020;2024-01-16T05:32:07;1.70;99.90
39067;DHT22;24821;51.988;6.020;2024-01-16T05:34:33;1.60;99.90
39067;DHT22;24821;51.988;6.020;2024-01-16T05:36:58;1.70;99.90
39067;DHT22;24821;51.988;6.020;2024-01-16T05:39:24;1.70;99.90
39067;DHT22;24821;51.988;6.020;2024-01-16T05:41:49;1.70;99.90
39067;DHT22;24821;51.988;6.020;2024-01-16T05:44:15;1.70;99.90
39067;DHT22;24821;51.988;6.020;2024-01-16T05:46:41;1.70;99.90
39067;DHT22;24821;51.988;6.020;2024-01-16T05:49:06;1.70;99.90
39067;DHT22;24821;51.988;6.020;2024-01-16T05:51:32;1.70;99.90
39067;DHT22;24821;51.988;6.020;2024-01-16T05:53:57;1.70;99.90
39067;DHT22;24821;51.988;6.020;2024-01-16T05:56:23;1.70;99.90
39067;DHT22;24821;51.988;6.020;2024-01-16T05:58:48;1.80;99.90
39067;DHT22;24821;51.988;6.020;2024-01-16T06:01:14;1.80;99.90
39067;DHT22;24821;51.988;6.020;2024-01-16T06:03:39;1.80;99.90
39067;DHT22;24821;51.988;6.020;2024-01-16T06:06:05;1.80;99.90
39067;DHT22;24821;51.988;6.020;2024-01-16T06:08:31;1.70;99.90
39067;DHT22;24821;51.988;6.020;2024-01-16T06:10:56;1.70;99.90
39067;DHT22;24821;51.988;6.020;2024-01-16T06:13:22;1.70;99.90
39067;DHT22;24821;51.988;6.020;2024-01-16T06:15:47;1.70;99.90
39067;DHT22;24821;51.988;6.020;2024-01-16T06:18:13;1.70;99.90
39067;DHT22;24821;51.988;6.020;2024-01-16T06:20:38;1.70;99.90
39067;DHT22;24821;51.988;6.020;2024-01-16T06:23:04;1.70;99.90
39067;DHT22;24821;51.988;6.020;2024-01-16T06:25:29;1.80;99.90
39067;DHT22;24821;51.988;6.020;2024-01-16T06:27:55;1.80;99.90
39067;DHT22;24821;51.988;6.020;2024-01-16T06:30:21;1.80;99.90
39067;DHT22;24821;51.988;6.020;2024-01-16T06:32:47;1.80;99.90
39067;DHT22;24821;51.988;6.020;2024-01-16T06:35:13;1.80;99.90
39067;DHT22;24821;51.988;6.020;2024-01-16T06:37:39;1.80;99.90
39067;DHT22;24821;51.988;6.020;2024-01-16T06:40:05;1.80;99.90
39067;DHT22;24821;51.988;6.020;2024-01-16T06:42:31;1.80;99.90
39067;DHT22;24821;51.988;6.020;2024-01-16T06:44:56;1.80;99.90
39067;DHT22;24821;51.988;6.020;2024-01-16T06:47:22;1.80;99.90
39067;DHT22;24821;51.988;6.020;2024-01-16T06:49:49;1.80;99.90
39067;DHT22;24821;51.988;6.020;2024-01-16T06:52:14;1.80;99.90
39067;DHT22;24821;51.988;6.020;2024-01-16T06:54:40;1.70;99.90
39067;DHT22;24821;51.988;6.020;2024-01-16T06:57:05;1.80;99.90
39067;DHT22;24821;51.988;6.020;2024-01-16T06:59:31;1.80;99.90
39067;DHT22;24821;51.988;6.020;2024-01-16T07:01:56;1.80;99.90
39067;DHT22;24821;51.988;6.020;2024-01-16T07:04:22;1.80;99.90
39067;DHT22;24821;51.988;6.020;2024-01-16T07:06:47;1.80;99.90
39067;DHT22;24821;51.988;6.020;2024-01-16T07:09:13;1.80;99.90
39067;DHT22;24821;51.988;6.020;2024-01-16T07:11:39;1.80;99.90
39067;DHT22;24821;51.988;6.020;2024-01-16T07:14:10;1.80;99.90
39067;DHT22;24821;51.988;6.020;2024-01-16T07:16:36;1.80;99.90
39067;DHT22;24821;51.988;6.020;2024-01-16T07:19:01;1.80;99.90
39067;DHT22;24821;51.988;6.020;2024-01-16T07:21:27;1.80;99.90
39067;DHT22;24821;51.988;6.020;2024-01-16T07:23:53;1.80;99.90
39067;DHT22;24821;51.988;6.020;2024-01-16T07:26:19;1.80;99.90
39067;DHT22;24821;51.988;6.020;2024-01-16T07:28:44;1.80;99.90
39067;DHT22;24821;51.988;6.020;2024-01-16T07:31:10;1.80;99.90
39067;DHT22;24821;51.988;6.020;2024-01-16T07:33:36;1.80;99.90
39067;DHT22;24821;51.988;6.020;2024-01-16T07:36:02;1.80;99.90
39067;DHT22;24821;51.988;6.020;2024-01-16T07:38:27;1.80;99.90
39067;DHT22;24821;51.988;6.020;2024-01-16T07:40:53;1.80;99.90
39067;DHT22;24821;51.988;6.020;2024-01-16T07:43:19;1.80;99.90
39067;DHT22;24821;51.988;6.020;2024-01-16T07:45:44;1.80;99.90
39067;DHT22;24821;51.988;6.020;2024-01-16T07:48:10;1.80;99.90
39067;DHT22;24821;51.988;6.020;2024-01-16T07:50:36;1.80;99.90
39067;DHT22;24821;51.988;6.020;2024-01-16T07:53:01;1.90;99.90
39067;DHT22;24821;51.988;6.020;2024-01-16T07:55:27;1.90;99.90
39067;DHT22;24821;51.988;6.020;2024-01-16T07:57:53;1.90;99.90
39067;DHT22;24821;51.988;6.020;2024-01-16T08:00:19;1.90;99.90
39067;DHT22;24821;51.988;6.020;2024-01-16T08:02:44;1.90;99.90
39067;DHT22;24821;51.988;6.020;2024-01-16T08:05:10;1.90;99.90
39067;DHT22;24821;51.988;6.020;2024-01-16T08:07:35;2.00;99.90
39067;DHT22;24821;51.988;6.020;2024-01-16T08:10:01;1.90;99.90
39067;DHT22;24821;51.988;6.020;2024-01-16T08:12:27;1.90;99.90
39067;DHT22;24821;51.988;6.020;2024-01-16T08:14:52;1.90;99.90
39067;DHT22;24821;51.988;6.020;2024-01-16T08:17:18;1.90;99.90
39067;DHT22;24821;51.988;6.020;2024-01-16T08:19:43;1.90;99.90
39067;DHT22;24821;51.988;6.020;2024-01-16T08:22:09;1.90;99.90
39067;DHT22;24821;51.988;6.020;2024-01-16T08:24:34;1.90;99.90
39067;DHT22;24821;51.988;6.020;2024-01-16T08:27:00;1.90;99.90
39067;DHT22;24821;51.988;6.020;2024-01-16T08:29:25;1.90;99.90
39067;DHT22;24821;51.988;6.020;2024-01-16T08:31:51;1.90;99.90
39067;DHT22;24821;51.988;6.020;2024-01-16T08:34:17;1.90;99.90
39067;DHT22;24821;51.988;6.020;2024-01-16T08:36:43;1.90;99.90
39067;DHT22;24821;51.988;6.020;2024-01-16T08:39:09;1.90;99.90
39067;DHT22;24821;51.988;6.020;2024-01-16T08:41:35;1.90;99.90
39067;DHT22;24821;51.988;6.020;2024-01-16T08:44:01;1.90;99.90
39067;DHT22;24821;51.988;6.020;2024-01-16T08:46:26;1.90;99.90
39067;DHT22;24821;51.988;6.020;2024-01-16T08:48:52;1.90;99.90
39067;DHT22;24821;51.988;6.020;2024-01-16T08:51:17;1.90;99.90
39067;DHT22;24821;51.988;6.020;2024-01-16T08:53:43;1.90;99.90
39067;DHT22;24821;51.988;6.020;2024-01-16T08:56:08;1.90;99.90
39067;DHT22;24821;51.988;6.020;2024-01-16T08:58:34;1.90;99.90
39067;DHT22;24821;51.988;6.020;2024-01-16T09:01:03;1.90;99.90
39067;DHT22;24821;51.988;6.020;2024-01-16T09:03:30;1.90;99.90
39067;DHT22;24821;51.988;6.020;2024-01-16T09:05:56;1.90;99.90
39067;DHT22;24821;51.988;6.020;2024-01-16T09:08:21;1.90;99.90
39067;DHT22;24821;51.988;6.020;2024-01-16T09:10:46;1.80;99.90
39067;DHT22;24821;51.988;6.020;2024-01-16T09:13:12;1.80;99.90
39067;DHT22;24821;51.988;6.020;2024-01-16T09:15:38;1.80;99.90
39067;DHT22;24821;51.988;6.020;2024-01-16T09:18:03;1.80;99.90
39067;DHT22;24821;51.988;6.020;2024-01-16T09:20:29;1.80;99.90
39067;DHT22;24821;51.988;6.020;2024-01-16T09:22:54;1.80;99.90
39067;DHT22;24821;51.988;6.020;2024-01-16T09:25:20;1.90;99.90
39067;DHT22;24821;51.988;6.020;2024-01-16T09:27:46;1.90;99.90
39067;DHT22;24821;51.988;6.020;2024-01-16T09:30:11;1.90;99.90
39067;DHT22;24821;51.988;6.020;2024-01-16T09:32:37;1.90;99.90
39067;DHT22;24821;51.988;6.020;2024-01-16T09:35:03;1.90;99.90
39067;DHT22;24821;51.988;6.020;2024-01-16T09:37:31;2.00;99.90
39067;DHT22;24821;51.988;6.020;2024-01-16T09:39:57;2.00;99.90
39067;DHT22;24821;51.988;6.020;2024-01-16T09:42:22;2.00;99.90
39067;DHT22;24821;51.988;6.020;2024-01-16T09:44:48;2.00;99.90
39067;DHT22;24821;51.988;6.020;2024-01-16T09:47:15;2.00;99.90
39067;DHT22;24821;51.988;6.020;2024-01-16T09:49:41;2.00;99.90
39067;DHT22;24821;51.988;6.020;2024-01-16T09:52:07;2.10;99.90
39067;DHT22;24821;51.988;6.020;2024-01-16T09:54:33;2.10;99.90
39067;DHT22;24821;51.988;6.020;2024-01-16T09:56:58;2.10;99.90
39067;DHT22;24821;51.988;6.020;2024-01-16T09:59:24;2.10;99.90
39067;DHT22;24821;51.988;6.020;2024-01-16T10:01:51;2.20;99.90
39067;DHT22;24821;51.988;6.020;2024-01-16T10:04:17;2.20;99.90
39067;DHT22;24821;51.988;6.020;2024-01-16T10:06:45;2.30;99.90
39067;DHT22;24821;51.988;6.020;2024-01-16T10:09:12;2.30;99.90
39067;DHT22;24821;51.988;6.020;2024-01-16T10:11:37;2.30;99.90
39067;DHT22;24821;51.988;6.020;2024-01-16T10:14:03;2.30;99.90
39067;DHT22;24821;51.988;6.020;2024-01-16T10:19:13;2.30;99.90
39067;DHT22;24821;51.988;6.020;2024-01-16T10:21:38;2.40;99.90
39067;DHT22;24821;51.988;6.020;2024-01-16T10:24:12;2.40;99.90
39067;DHT22;24821;51.988;6.020;2024-01-16T10:26:38;2.40;99.90
39067;DHT22;24821;51.988;6.020;2024-01-16T10:29:03;2.40;99.90
39067;DHT22;24821;51.988;6.020;2024-01-16T10:31:33;2.50;99.90
39067;DHT22;24821;51.988;6.020;2024-01-16T10:33:59;2.60;99.90
39067;DHT22;24821;51.988;6.020;2024-01-16T10:36:24;2.70;99.90
39067;DHT22;24821;51.988;6.020;2024-01-16T10:38:51;2.70;99.90
39067;DHT22;24821;51.988;6.020;2024-01-16T10:41:23;2.80;99.90
39067;DHT22;24821;51.988;6.020;2024-01-16T10:44:04;2.80;99.90
39067;DHT22;24821;51.988;6.020;2024-01-16T10:46:30;2.80;99.90
39067;DHT22;24821;51.988;6.020;2024-01-16T10:48:59;2.70;99.90
39067;DHT22;24821;51.988;6.020;2024-01-16T10:51:28;2.70;99.90
39067;DHT22;24821;51.988;6.020;2024-01-16T10:53:58;2.60;99.90
39067;DHT22;24821;51.988;6.020;2024-01-16T10:56:24;2.60;99.90
39067;DHT22;24821;51.988;6.020;2024-01-16T10:58:52;2.50;99.90
39067;DHT22;24821;51.988;6.020;2024-01-16T11:01:21;2.50;99.90
39067;DHT22;24821;51.988;6.020;2024-01-16T11:03:47;2.40;99.90
39067;DHT22;24821;51.988;6.020;2024-01-16T11:06:14;2.50;99.90
39067;DHT22;24821;51.988;6.020;2024-01-16T11:08:40;2.50;99.90
39067;DHT22;24821;51.988;6.020;2024-01-16T11:11:06;2.60;99.90
39067;DHT22;24821;51.988;6.020;2024-01-16T11:13:33;2.70;99.90
39067;DHT22;24821;51.988;6.020;2024-01-16T11:16:02;2.80;99.90
39067;DHT22;24821;51.988;6.020;2024-01-16T11:18:29;2.90;99.90
39067;DHT22;24821;51.988;6.020;2024-01-16T11:20:55;3.00;99.90
39067;DHT22;24821;51.988;6.020;2024-01-16T11:23:21;3.10;99.90
39067;DHT22;24821;51.988;6.020;2024-01-16T11:25:46;3.20;99.90
39067;DHT22;24821;51.988;6.020;2024-01-16T11:28:12;3.20;99.90
39067;DHT22;24821;51.988;6.020;2024-01-16T11:30:39;3.20;99.90
39067;DHT22;24821;51.988;6.020;2024-01-16T11:33:05;3.20;99.90
39067;DHT22;24821;51.988;6.020;2024-01-16T11:35:37;3.20;99.90
39067;DHT22;24821;51.988;6.020;2024-01-16T11:40:34;3.30;99.90
39067;DHT22;24821;51.988;6.020;2024-01-16T11:50:36;3.60;99.90
39067;DHT22;24821;51.988;6.020;2024-01-16T11:53:03;3.60;99.90
39067;DHT22;24821;51.988;6.020;2024-01-16T12:00:32;3.70;99.90
39067;DHT22;24821;51.988;6.020;2024-01-16T12:02:58;3.70;99.90
39067;DHT22;24821;51.988;6.020;2024-01-16T12:05:26;3.70;99.90
39067;DHT22;24821;51.988;6.020;2024-01-16T12:07:52;3.70;99.90
39067;DHT22;24821;51.988;6.020;2024-01-16T12:10:22;3.80;99.90
39067;DHT22;24821;51.988;6.020;2024-01-16T12:12:49;3.70;99.90
39067;DHT22;24821;51.988;6.020;2024-01-16T12:15:15;3.70;99.90
39067;DHT22;24821;51.988;6.020;2024-01-16T12:20:37;3.80;99.90
39067;DHT22;24821;51.988;6.020;2024-01-16T12:23:03;3.70;99.90
39067;DHT22;24821;51.988;6.020;2024-01-16T12:25:31;3.70;99.90
39067;DHT22;24821;51.988;6.020;2024-01-16T12:28:00;3.80;99.90
39067;DHT22;24821;51.988;6.020;2024-01-16T12:30:26;3.80;99.90
39067;DHT22;24821;51.988;6.020;2024-01-16T12:33:05;3.80;99.90
39067;DHT22;24821;51.988;6.020;2024-01-16T12:35:35;3.80;99.90
39067;DHT22;24821;51.988;6.020;2024-01-16T12:38:01;3.80;99.90
39067;DHT22;24821;51.988;6.020;2024-01-16T12:40:27;3.80;99.90
39067;DHT22;24821;51.988;6.020;2024-01-16T12:42:52;3.90;99.90
39067;DHT22;24821;51.988;6.020;2024-01-16T12:45:18;3.90;99.90
39067;DHT22;24821;51.988;6.020;2024-01-16T12:47:44;4.00;99.90
39067;DHT22;24821;51.988;6.020;2024-01-16T12:50:10;4.00;99.90
39067;DHT22;24821;51.988;6.020;2024-01-16T12:52:35;4.00;99.90
39067;DHT22;24821;51.988;6.020;2024-01-16T12:55:01;3.90;99.90
39067;DHT22;24821;51.988;6.020;2024-01-16T12:57:29;3.90;99.90
39067;DHT22;24821;51.988;6.020;2024-01-16T12:59:55;3.90;99.90
39067;DHT22;24821;51.988;6.020;2024-01-16T13:02:23;3.90;99.90
39067;DHT22;24821;51.988;6.020;2024-01-16T13:04:56;3.90;99.90
39067;DHT22;24821;51.988;6.020;2024-01-16T13:07:22;3.90;99.90
39067;DHT22;24821;51.988;6.020;2024-01-16T13:09:48;4.00;99.90
39067;DHT22;24821;51.988;6.020;2024-01-16T13:12:19;3.90;99.90
39067;DHT22;24821;51.988;6.020;2024-01-16T13:14:45;3.80;99.90
39067;DHT22;24821;51.988;6.020;2024-01-16T13:17:11;3.80;99.90
39067;DHT22;24821;51.988;6.020;2024-01-16T13:19:36;3.70;99.90
39067;DHT22;24821;51.988;6.020;2024-01-16T13:22:02;3.70;99.90
39067;DHT22;24821;51.988;6.020;2024-01-16T13:24:29;3.70;99.90
39067;DHT22;24821;51.988;6.020;2024-01-16T13:26:54;3.70;99.90
39067;DHT22;24821;51.988;6.020;2024-01-16T13:29:20;3.70;99.90
39067;DHT22;24821;51.988;6.020;2024-01-16T13:31:45;3.70;99.90
39067;DHT22;24821;51.988;6.020;2024-01-16T13:34:11;3.80;99.90
39067;DHT22;24821;51.988;6.020;2024-01-16T13:36:37;3.80;99.90
39067;DHT22;24821;51.988;6.020;2024-01-16T13:39:02;3.80;99.90
39067;DHT22;24821;51.988;6.020;2024-01-16T13:41:28;3.80;99.90
39067;DHT22;24821;51.988;6.020;2024-01-16T13:43:54;3.90;99.90
39067;DHT22;24821;51.988;6.020;2024-01-16T13:46:19;3.80;99.90
39067;DHT22;24821;51.988;6.020;2024-01-16T13:48:45;3.80;99.90
39067;DHT22;24821;51.988;6.020;2024-01-16T13:51:11;3.80;99.90
39067;DHT22;24821;51.988;6.020;2024-01-16T13:53:36;3.70;99.90
39067;DHT22;24821;51.988;6.020;2024-01-16T13:56:02;3.70;99.90
39067;DHT22;24821;51.988;6.020;2024-01-16T13:58:27;3.70;99.90
39067;DHT22;24821;51.988;6.020;2024-01-16T14:00:53;3.60;99.90
39067;DHT22;24821;51.988;6.020;2024-01-16T14:03:19;3.60;99.90
39067;DHT22;24821;51.988;6.020;2024-01-16T14:05:45;3.60;99.90
39067;DHT22;24821;51.988;6.020;2024-01-16T14:08:11;3.60;99.90
39067;DHT22;24821;51.988;6.020;2024-01-16T14:10:38;3.50;99.90
39067;DHT22;24821;51.988;6.020;2024-01-16T14:13:03;3.50;99.90
39067;DHT22;24821;51.988;6.020;2024-01-16T14:15:29;3.40;99.90
39067;DHT22;24821;51.988;6.020;2024-01-16T14:17:55;3.40;99.90
39067;DHT22;24821;51.988;6.020;2024-01-16T14:20:22;3.40;99.90
39067;DHT22;24821;51.988;6.020;2024-01-16T14:22:55;3.40;99.90
39067;DHT22;24821;51.988;6.020;2024-01-16T14:25:20;3.40;99.90
39067;DHT22;24821;51.988;6.020;2024-01-16T14:27:59;3.30;99.90
39067;DHT22;24821;51.988;6.020;2024-01-16T14:30:25;3.30;99.90
39067;DHT22;24821;51.988;6.020;2024-01-16T14:32:51;3.20;99.90
39067;DHT22;24821;51.988;6.020;2024-01-16T14:35:18;3.20;99.90
39067;DHT22;24821;51.988;6.020;2024-01-16T14:37:45;3.20;99.90
39067;DHT22;24821;51.988;6.020;2024-01-16T14:40:10;3.10;99.90
39067;DHT22;24821;51.988;6.020;2024-01-16T14:42:43;3.10;99.90
39067;DHT22;24821;51.988;6.020;2024-01-16T14:45:10;3.00;99.90
39067;DHT22;24821;51.988;6.020;2024-01-16T14:47:37;3.00;99.90
39067;DHT22;24821;51.988;6.020;2024-01-16T14:50:03;3.00;99.90
39067;DHT22;24821;51.988;6.020;2024-01-16T14:52:29;2.90;99.90
39067;DHT22;24821;51.988;6.020;2024-01-16T14:54:55;2.90;99.90
39067;DHT22;24821;51.988;6.020;2024-01-16T14:57:21;2.90;99.90
39067;DHT22;24821;51.988;6.020;2024-01-16T14:59:46;2.90;99.90
39067;DHT22;24821;51.988;6.020;2024-01-16T15:02:12;2.80;99.90
39067;DHT22;24821;51.988;6.020;2024-01-16T15:04:41;2.80;99.90
39067;DHT22;24821;51.988;6.020;2024-01-16T15:07:08;2.70;99.90
39067;DHT22;24821;51.988;6.020;2024-01-16T15:09:33;2.60;99.90
39067;DHT22;24821;51.988;6.020;2024-01-16T15:12:06;2.70;99.90
39067;DHT22;24821;51.988;6.020;2024-01-16T15:14:32;2.60;99.90
39067;DHT22;24821;51.988;6.020;2024-01-16T15:16:58;2.60;99.90
39067;DHT22;24821;51.988;6.020;2024-01-16T15:19:23;2.60;99.90
39067;DHT22;24821;51.988;6.020;2024-01-16T15:21:49;2.50;99.90
39067;DHT22;24821;51.988;6.020;2024-01-16T15:24:14;2.50;99.90
39067;DHT22;24821;51.988;6.020;2024-01-16T15:26:45;2.50;99.90
39067;DHT22;24821;51.988;6.020;2024-01-16T15:29:10;2.50;99.90
39067;DHT22;24821;51.988;6.020;2024-01-16T15:31:37;2.50;99.90
39067;DHT22;24821;51.988;6.020;2024-01-16T15:34:02;2.40;99.90
39067;DHT22;24821;51.988;6.020;2024-01-16T15:36:28;2.40;99.90
39067;DHT22;24821;51.988;6.020;2024-01-16T15:38:54;2.40;99.90
39067;DHT22;24821;51.988;6.020;2024-01-16T15:41:19;2.30;99.90
39067;DHT22;24821;51.988;6.020;2024-01-16T15:43:45;2.30;99.90
39067;DHT22;24821;51.988;6.020;2024-01-16T15:46:10;2.20;99.90
39067;DHT22;24821;51.988;6.020;2024-01-16T15:48:39;2.20;99.90
39067;DHT22;24821;51.988;6.020;2024-01-16T15:51:05;2.20;99.90
39067;DHT22;24821;51.988;6.020;2024-01-16T15:53:33;2.10;99.90
39067;DHT22;24821;51.988;6.020;2024-01-16T15:55:59;2.20;99.90
39067;DHT22;24821;51.988;6.020;2024-01-16T15:58:25;2.00;99.90